Time;durP1;ratioP1;P1;durP2;ratioP2;P2;SDS_P1;SDS_P2;PMS_P1;PMS_P2;Temp;Humidity;BMP_temperature;BMP_pressure;BME280_temperature;BME280_humidity;BME280_pressure;Samples;Min_cycle;Max_cycle;Signal;HPM_P1;HPM_P2
2023/11/22 00:02:01;;;;;;;9.23;6.47;;;;;;;;;;4993990;28;20878;-84
2023/11/22 00:04:28;;;;;;;8.13;6.40;;;;;;;;;;4992441;28;20491;-84
2023/11/22 00:06:55;;;;;;;8.40;6.57;;;;;;;;;;4994920;28;20519;-84
2023/11/22 00:09:23;;;;;;;9.00;6.00;;;;;;;;;;4994489;28;20472;-84
2023/11/22 00:11:49;;;;;;;7.77;6.00;;;;;;;;;;4997869;28;20877;-83
2023/11/22 00:14:16;;;;;;;9.43;6.77;;;;;;;;;;4993407;28;20466;-82
2023/11/22 00:16:42;;;;;;;7.67;6.87;;;;;;;;;;4998085;28;20488;-83
2023/11/22 00:19:09;;;;;;;8.57;6.40;;;;;;;;;;4994999;28;20456;-84
2023/11/22 00:21:35;;;;;;;7.20;6.30;;;;;;;;;;4998954;28;20979;-85
2023/11/22 00:24:04;;;;;;;7.80;6.17;;;;;;;;;;4995351;28;20464;-85
2023/11/22 00:26:32;;;;;;;9.40;7.13;;;;;;;;;;4991525;28;20496;-84
2023/11/22 00:28:58;;;;;;;11.00;6.87;;;;;;;;;;4988758;28;20555;-85
2023/11/22 00:31:25;;;;;;;11.00;6.10;;;;;;;;;;5002079;28;20467;-85
2023/11/22 00:33:51;;;;;;;9.43;6.77;;;;;;;;;;4996777;28;20486;-84
2023/11/22 00:36:17;;;;;;;6.33;5.73;;;;;;;;;;5002358;28;20555;-85
2023/11/22 00:38:45;;;;;;;10.37;5.73;;;;;;;;;;4991869;28;20475;-84
2023/11/22 00:41:14;;;;;;;9.40;6.33;;;;;;;;;;4995582;28;20518;-85
2023/11/22 00:43:40;;;;;;;13.73;7.50;;;;;;;;;;5006206;28;20908;-84
2023/11/22 00:46:07;;;;;;;9.27;6.83;;;;;;;;;;4997872;28;20490;-85
2023/11/22 00:48:33;;;;;;;7.97;6.47;;;;;;;;;;4996682;28;20558;-86
2023/11/22 00:50:59;;;;;;;11.33;6.87;;;;;;;;;;4996655;28;20538;-85
2023/11/22 00:53:26;;;;;;;9.47;6.00;;;;;;;;;;4999905;28;20563;-84
2023/11/22 00:55:53;;;;;;;7.00;6.03;;;;;;;;;;4992116;28;20460;-85
2023/11/22 00:58:20;;;;;;;9.03;6.40;;;;;;;;;;4987891;28;20539;-83
2023/11/22 01:00:47;;;;;;;8.53;6.53;;;;;;;;;;5002881;28;20964;-84
2023/11/22 01:03:14;;;;;;;10.73;6.60;;;;;;;;;;5000383;28;20531;-84
2023/11/22 01:05:42;;;;;;;7.83;6.00;;;;;;;;;;4999966;28;20486;-84
2023/11/22 01:08:08;;;;;;;8.07;6.60;;;;;;;;;;5001667;28;20553;-84
2023/11/22 01:10:35;;;;;;;7.73;5.93;;;;;;;;;;5002013;28;20558;-83
2023/11/22 01:13:01;;;;;;;8.70;6.10;;;;;;;;;;4997578;28;20463;-82
2023/11/22 01:15:29;;;;;;;9.37;6.20;;;;;;;;;;4995379;28;20463;-84
2023/11/22 01:17:56;;;;;;;6.67;5.53;;;;;;;;;;5002322;28;20459;-84
2023/11/22 01:20:23;;;;;;;10.67;6.23;;;;;;;;;;4994961;28;21294;-82
2023/11/22 01:22:49;;;;;;;9.00;6.70;;;;;;;;;;4989726;28;21590;-84
2023/11/22 01:25:16;;;;;;;7.90;6.13;;;;;;;;;;4999102;28;20543;-84
2023/11/22 01:27:42;;;;;;;6.67;6.00;;;;;;;;;;5001849;28;20546;-84
2023/11/22 01:30:09;;;;;;;6.20;5.17;;;;;;;;;;4996536;28;21030;-85
2023/11/22 01:32:37;;;;;;;9.47;6.17;;;;;;;;;;4995172;28;20499;-83
2023/11/22 01:35:05;;;;;;;7.57;6.03;;;;;;;;;;5002451;28;20514;-82
2023/11/22 01:37:32;;;;;;;8.13;6.23;;;;;;;;;;4995820;28;21406;-84
2023/11/22 01:39:58;;;;;;;9.60;6.13;;;;;;;;;;4997071;28;20459;-84
2023/11/22 01:42:25;;;;;;;8.50;6.63;;;;;;;;;;4997860;28;20550;-84
2023/11/22 01:44:52;;;;;;;8.00;5.77;;;;;;;;;;5010379;28;20460;-84
2023/11/22 01:47:19;;;;;;;8.90;5.80;;;;;;;;;;4997819;28;20507;-84
2023/11/22 01:49:47;;;;;;;8.00;5.87;;;;;;;;;;4996678;28;20597;-83
2023/11/22 01:52:14;;;;;;;8.50;6.50;;;;;;;;;;5001485;28;21061;-84
2023/11/22 01:54:41;;;;;;;7.03;6.20;;;;;;;;;;4999954;28;20462;-83
2023/11/22 01:57:09;;;;;;;9.83;6.33;;;;;;;;;;4998603;28;20460;-83
2023/11/22 01:59:36;;;;;;;7.13;6.07;;;;;;;;;;4999281;28;20455;-84
2023/11/22 02:02:03;;;;;;;7.30;6.10;;;;;;;;;;4991544;28;20492;-84
2023/11/22 02:04:29;;;;;;;7.57;6.20;;;;;;;;;;4994234;28;20464;-83
2023/11/22 02:06:57;;;;;;;10.10;6.20;;;;;;;;;;4994648;28;20522;-84
2023/11/22 02:09:24;;;;;;;10.90;6.13;;;;;;;;;;4996718;28;20456;-84
2023/11/22 02:11:51;;;;;;;6.63;5.90;;;;;;;;;;4993733;28;20467;-84
2023/11/22 02:14:18;;;;;;;8.70;6.40;;;;;;;;;;4998397;28;20460;-84
2023/11/22 02:16:46;;;;;;;5.87;5.30;;;;;;;;;;4993196;28;20470;-83
2023/11/22 02:19:15;;;;;;;7.50;5.60;;;;;;;;;;4991060;28;20504;-83
2023/11/22 02:21:41;;;;;;;10.30;5.30;;;;;;;;;;5000781;28;20467;-84
2023/11/22 02:24:09;;;;;;;8.73;6.10;;;;;;;;;;4989409;28;20547;-84
2023/11/22 02:26:36;;;;;;;7.90;6.20;;;;;;;;;;4997622;28;21015;-84
2023/11/22 02:29:04;;;;;;;7.07;6.17;;;;;;;;;;4994842;28;20459;-84
2023/11/22 02:31:30;;;;;;;8.73;6.17;;;;;;;;;;4990855;28;20507;-84
2023/11/22 02:33:56;;;;;;;9.20;6.40;;;;;;;;;;4995123;28;20494;-84
2023/11/22 02:36:24;;;;;;;6.53;5.30;;;;;;;;;;4996288;28;20531;-83
2023/11/22 02:38:51;;;;;;;9.13;6.20;;;;;;;;;;4989487;28;20462;-84
2023/11/22 02:41:18;;;;;;;7.13;5.73;;;;;;;;;;4992811;28;20456;-84
2023/11/22 02:43:46;;;;;;;8.40;6.37;;;;;;;;;;4996053;28;20466;-84
2023/11/22 02:46:12;;;;;;;8.27;6.40;;;;;;;;;;4995693;28;20475;-84
2023/11/22 02:48:39;;;;;;;7.90;5.70;;;;;;;;;;4999304;28;20612;-83
2023/11/22 02:51:06;;;;;;;7.83;6.60;;;;;;;;;;4996253;28;20479;-84
2023/11/22 02:53:32;;;;;;;7.30;5.57;;;;;;;;;;5001223;28;20462;-85
2023/11/22 02:56:00;;;;;;;7.13;6.30;;;;;;;;;;5001314;28;20522;-84
2023/11/22 02:58:27;;;;;;;8.73;5.63;;;;;;;;;;5000902;28;20483;-84
2023/11/22 03:00:54;;;;;;;5.53;4.90;;;;;;;;;;5000841;28;20985;-85
2023/11/22 03:03:21;;;;;;;6.50;5.53;;;;;;;;;;5000461;28;20527;-84
2023/11/22 03:05:47;;;;;;;5.97;5.20;;;;;;;;;;4993290;28;20542;-84
2023/11/22 03:08:15;;;;;;;8.07;5.80;;;;;;;;;;5004983;28;20551;-85
2023/11/22 03:10:42;;;;;;;8.20;5.67;;;;;;;;;;4998764;28;21277;-85
2023/11/22 03:13:09;;;;;;;7.83;5.87;;;;;;;;;;5005054;28;20508;-86
2023/11/22 03:15:37;;;;;;;6.63;5.77;;;;;;;;;;4995573;28;20466;-85
2023/11/22 03:18:06;;;;;;;6.83;5.73;;;;;;;;;;4999171;28;20487;-85
2023/11/22 03:20:32;;;;;;;7.63;6.07;;;;;;;;;;5000966;28;20456;-85
2023/11/22 03:22:59;;;;;;;9.00;6.67;;;;;;;;;;4994777;28;20480;-84
2023/11/22 03:25:26;;;;;;;9.00;6.67;;;;;;;;;;4998155;28;20471;-85
2023/11/22 03:27:53;;;;;;;8.70;5.90;;;;;;;;;;4997560;28;20491;-85
2023/11/22 03:30:22;;;;;;;7.53;5.73;;;;;;;;;;4995442;28;20495;-85
2023/11/22 03:32:49;;;;;;;7.03;6.30;;;;;;;;;;4997730;28;20563;-84
2023/11/22 03:35:16;;;;;;;8.17;5.90;;;;;;;;;;4995547;28;20471;-83
2023/11/22 03:37:43;;;;;;;10.07;5.63;;;;;;;;;;4996383;28;20455;-84
2023/11/22 03:40:10;;;;;;;8.03;5.50;;;;;;;;;;5000438;28;20463;-84
2023/11/22 03:42:36;;;;;;;7.27;5.53;;;;;;;;;;5002266;28;21041;-84
2023/11/22 03:45:03;;;;;;;7.13;4.60;;;;;;;;;;5002982;28;21388;-84
2023/11/22 03:47:29;;;;;;;8.03;6.00;;;;;;;;;;4992345;28;21062;-82
2023/11/22 03:49:57;;;;;;;6.07;5.10;;;;;;;;;;4992974;28;20487;-84
2023/11/22 03:52:24;;;;;;;9.80;5.40;;;;;;;;;;4997959;28;20499;-84
2023/11/22 03:54:50;;;;;;;7.77;5.90;;;;;;;;;;5004199;28;20485;-84
2023/11/22 03:57:16;;;;;;;8.17;5.73;;;;;;;;;;4997961;28;20539;-83
2023/11/22 03:59:43;;;;;;;8.50;6.30;;;;;;;;;;4993936;28;20451;-83
2023/11/22 04:02:09;;;;;;;7.27;6.00;;;;;;;;;;4997507;28;20455;-84
2023/11/22 04:04:36;;;;;;;8.07;6.20;;;;;;;;;;4999746;28;20464;-84
2023/11/22 04:07:04;;;;;;;9.23;6.40;;;;;;;;;;4997669;28;20471;-84
2023/11/22 04:09:30;;;;;;;8.67;5.60;;;;;;;;;;4996273;28;20566;-83
2023/11/22 04:11:57;;;;;;;9.77;6.77;;;;;;;;;;5006023;28;20473;-85
2023/11/22 04:14:24;;;;;;;6.43;5.57;;;;;;;;;;4990658;28;20468;-83
2023/11/22 04:16:50;;;;;;;7.47;6.03;;;;;;;;;;4998782;28;20883;-83
2023/11/22 04:19:17;;;;;;;6.90;5.50;;;;;;;;;;4995617;28;20457;-84
2023/11/22 04:21:43;;;;;;;10.87;6.20;;;;;;;;;;4996986;28;20496;-83
2023/11/22 04:24:12;;;;;;;7.60;6.17;;;;;;;;;;4999404;28;20463;-85
2023/11/22 04:26:38;;;;;;;7.23;6.40;;;;;;;;;;4999424;28;20472;-85
2023/11/22 04:29:05;;;;;;;9.53;6.50;;;;;;;;;;4993269;28;20590;-85
2023/11/22 04:31:31;;;;;;;11.77;6.73;;;;;;;;;;4994944;28;20961;-85
2023/11/22 04:34:00;;;;;;;6.93;6.23;;;;;;;;;;4998957;28;20472;-82
2023/11/22 04:36:26;;;;;;;8.27;6.60;;;;;;;;;;4998910;28;20472;-83
2023/11/22 04:38:52;;;;;;;7.90;5.83;;;;;;;;;;4999276;28;20574;-84
2023/11/22 04:41:20;;;;;;;9.80;6.87;;;;;;;;;;4994451;28;20527;-82
2023/11/22 04:43:47;;;;;;;12.63;6.67;;;;;;;;;;4996081;28;20456;-81
2023/11/22 04:46:13;;;;;;;16.50;5.50;;;;;;;;;;4995913;28;21330;-84
2023/11/22 04:48:41;;;;;;;6.50;5.87;;;;;;;;;;5001110;28;20507;-85
2023/11/22 04:51:08;;;;;;;8.97;6.10;;;;;;;;;;4999011;28;20506;-85
2023/11/22 04:53:35;;;;;;;10.20;6.77;;;;;;;;;;4996243;28;20859;-84
2023/11/22 04:56:05;;;;;;;6.60;5.70;;;;;;;;;;4992186;28;20523;-83
2023/11/22 04:58:32;;;;;;;11.37;5.70;;;;;;;;;;4991707;28;20464;-82
2023/11/22 05:00:59;;;;;;;9.73;6.07;;;;;;;;;;4998262;28;20530;-84
2023/11/22 05:03:25;;;;;;;13.93;7.13;;;;;;;;;;4998117;28;20502;-84
2023/11/22 05:05:52;;;;;;;9.43;5.90;;;;;;;;;;4992818;28;20539;-84
2023/11/22 05:08:18;;;;;;;7.87;5.77;;;;;;;;;;4997728;28;20496;-85
2023/11/22 05:10:45;;;;;;;8.67;5.97;;;;;;;;;;4999257;28;20492;-84
2023/11/22 05:13:11;;;;;;;8.33;6.60;;;;;;;;;;4996175;28;20470;-85
2023/11/22 05:15:38;;;;;;;6.80;6.10;;;;;;;;;;4999075;28;20547;-84
2023/11/22 05:18:05;;;;;;;7.60;6.10;;;;;;;;;;5007571;28;20475;-85
2023/11/22 05:20:32;;;;;;;9.07;6.67;;;;;;;;;;5000784;28;20455;-85
2023/11/22 05:22:59;;;;;;;9.10;6.50;;;;;;;;;;5002815;28;20588;-84
2023/11/22 05:25:25;;;;;;;11.33;6.90;;;;;;;;;;4994833;28;20455;-83
2023/11/22 05:27:55;;;;;;;8.23;6.17;;;;;;;;;;4999135;28;20495;-85
2023/11/22 05:30:21;;;;;;;8.03;6.50;;;;;;;;;;4994201;28;20488;-86
2023/11/22 05:32:51;;;;;;;7.93;6.10;;;;;;;;;;5000664;28;20459;-86
2023/11/22 05:35:17;;;;;;;11.23;7.80;;;;;;;;;;5001804;28;20455;-86
2023/11/22 05:37:44;;;;;;;7.97;7.27;;;;;;;;;;4998294;28;20496;-85
2023/11/22 05:40:11;;;;;;;9.60;8.60;;;;;;;;;;4996579;28;20581;-85
2023/11/22 05:42:37;;;;;;;9.50;7.50;;;;;;;;;;4992379;28;20466;-87
2023/11/22 05:45:05;;;;;;;8.80;7.10;;;;;;;;;;4996198;28;20467;-86
2023/11/22 05:47:32;;;;;;;7.27;6.33;;;;;;;;;;4996626;28;20475;-88
2023/11/22 05:50:00;;;;;;;11.13;6.63;;;;;;;;;;4999620;28;20547;-87
2023/11/22 05:52:26;;;;;;;9.87;7.47;;;;;;;;;;4994737;28;20492;-88
2023/11/22 05:54:53;;;;;;;8.83;6.50;;;;;;;;;;4999849;28;20466;-87
2023/11/22 05:57:20;;;;;;;7.57;6.50;;;;;;;;;;4993203;28;20496;-88
2023/11/22 05:59:47;;;;;;;10.40;6.67;;;;;;;;;;4997889;28;20457;-86
2023/11/22 06:02:14;;;;;;;8.83;6.30;;;;;;;;;;4995837;28;20444;-87
2023/11/22 06:04:40;;;;;;;11.50;7.10;;;;;;;;;;5001843;28;20558;-87
2023/11/22 06:07:08;;;;;;;9.00;6.80;;;;;;;;;;4994383;28;20460;-85
2023/11/22 06:09:36;;;;;;;15.13;7.93;;;;;;;;;;4990327;28;20560;-86
2023/11/22 06:12:02;;;;;;;11.00;6.90;;;;;;;;;;4989602;28;20463;-86
2023/11/22 06:14:28;;;;;;;8.23;6.40;;;;;;;;;;4993222;28;20464;-87
2023/11/22 06:16:55;;;;;;;7.60;5.90;;;;;;;;;;4995799;28;20607;-86
2023/11/22 06:19:21;;;;;;;13.60;5.83;;;;;;;;;;4998224;28;20465;-85
2023/11/22 06:21:47;;;;;;;10.90;6.23;;;;;;;;;;4998744;28;20447;-84
2023/11/22 06:24:16;;;;;;;11.60;6.93;;;;;;;;;;4995215;28;20488;-86
2023/11/22 06:26:43;;;;;;;10.80;6.60;;;;;;;;;;4996508;28;20456;-85
2023/11/22 06:29:09;;;;;;;8.90;6.60;;;;;;;;;;4996826;28;20480;-85
2023/11/22 06:31:36;;;;;;;11.67;7.07;;;;;;;;;;4991352;28;20989;-84
2023/11/22 06:34:02;;;;;;;11.77;7.47;;;;;;;;;;4989785;28;20495;-83
2023/11/22 06:36:29;;;;;;;11.67;7.40;;;;;;;;;;4998569;28;20462;-84
2023/11/22 06:38:55;;;;;;;9.50;7.43;;;;;;;;;;4995614;28;20472;-81
2023/11/22 06:41:23;;;;;;;11.50;7.43;;;;;;;;;;4997784;28;20495;-82
2023/11/22 06:43:49;;;;;;;8.80;6.90;;;;;;;;;;4998000;28;20519;-83
2023/11/22 06:46:16;;;;;;;9.10;7.53;;;;;;;;;;4998270;28;20523;-81
2023/11/22 06:48:44;;;;;;;12.50;8.30;;;;;;;;;;4987028;28;20508;-83
2023/11/22 06:51:10;;;;;;;13.00;7.97;;;;;;;;;;4992226;28;20484;-80
2023/11/22 06:53:36;;;;;;;14.00;7.87;;;;;;;;;;4984819;28;20518;-83
2023/11/22 06:56:03;;;;;;;10.87;7.20;;;;;;;;;;4988926;28;20459;-85
2023/11/22 06:58:31;;;;;;;9.20;7.50;;;;;;;;;;4990517;28;20523;-84
2023/11/22 07:00:57;;;;;;;9.50;7.50;;;;;;;;;;4987969;28;20539;-84
2023/11/22 07:03:24;;;;;;;11.73;8.70;;;;;;;;;;4989176;28;20460;-84
2023/11/22 07:05:51;;;;;;;11.07;7.10;;;;;;;;;;5000162;28;20987;-82
2023/11/22 07:08:17;;;;;;;10.20;7.30;;;;;;;;;;5002890;28;20451;-82
2023/11/22 07:10:44;;;;;;;13.17;7.90;;;;;;;;;;4990129;28;20885;-83
2023/11/22 07:13:11;;;;;;;11.20;7.50;;;;;;;;;;4996717;28;20467;-84
2023/11/22 07:15:39;;;;;;;13.10;9.17;;;;;;;;;;4996879;28;20975;-80
2023/11/22 07:18:05;;;;;;;18.57;8.90;;;;;;;;;;4992570;28;20459;-80
2023/11/22 07:20:32;;;;;;;14.80;7.63;;;;;;;;;;4989934;28;20488;-79
2023/11/22 07:23:00;;;;;;;18.43;8.97;;;;;;;;;;4998008;28;20491;-79
2023/11/22 07:25:26;;;;;;;10.60;8.40;;;;;;;;;;4993167;28;20718;-79
2023/11/22 07:27:53;;;;;;;9.53;7.83;;;;;;;;;;4995062;28;20529;-82
2023/11/22 07:30:20;;;;;;;12.60;9.30;;;;;;;;;;4997806;28;20479;-83
2023/11/22 07:32:50;;;;;;;14.97;8.53;;;;;;;;;;4997872;28;20455;-81
2023/11/22 07:35:16;;;;;;;11.87;8.50;;;;;;;;;;4999747;28;20479;-82
2023/11/22 07:37:43;;;;;;;12.77;7.47;;;;;;;;;;4996656;28;20491;-81
2023/11/22 07:40:11;;;;;;;14.93;8.40;;;;;;;;;;4999307;28;20451;-81
2023/11/22 07:42:38;;;;;;;14.70;9.40;;;;;;;;;;5000434;28;20464;-81
2023/11/22 07:45:04;;;;;;;21.20;9.07;;;;;;;;;;4999296;28;20976;-81
2023/11/22 07:47:31;;;;;;;20.30;8.53;;;;;;;;;;4999418;28;20498;-82
2023/11/22 07:50:00;;;;;;;11.70;8.90;;;;;;;;;;4989849;28;20556;-86
2023/11/22 07:52:29;;;;;;;11.90;8.67;;;;;;;;;;4988002;28;20837;-85
2023/11/22 07:54:56;;;;;;;9.63;8.50;;;;;;;;;;5000176;28;20451;-86
2023/11/22 07:57:22;;;;;;;13.30;9.27;;;;;;;;;;4997390;28;20459;-86
2023/11/22 07:59:49;;;;;;;13.10;8.47;;;;;;;;;;4996176;28;20536;-85
2023/11/22 08:02:18;;;;;;;13.93;9.97;;;;;;;;;;4994461;28;20901;-86
2023/11/22 08:04:45;;;;;;;9.53;8.50;;;;;;;;;;5001806;28;20463;-85
2023/11/22 08:07:14;;;;;;;10.70;8.80;;;;;;;;;;4997345;28;20499;-86
2023/11/22 08:09:41;;;;;;;11.30;8.90;;;;;;;;;;5000980;28;20491;-84
2023/11/22 08:12:07;;;;;;;16.10;9.50;;;;;;;;;;5000895;28;20444;-88
2023/11/22 08:14:34;;;;;;;10.40;8.50;;;;;;;;;;4997348;28;20463;-88
2023/11/22 08:17:01;;;;;;;11.03;9.93;;;;;;;;;;5003498;28;20498;-87
2023/11/22 08:19:28;;;;;;;10.40;8.80;;;;;;;;;;4998575;28;20474;-84
2023/11/22 08:21:54;;;;;;;10.27;9.27;;;;;;;;;;5005052;28;20439;-85
2023/11/22 08:24:22;;;;;;;10.13;8.87;;;;;;;;;;5000307;28;21043;-86
2023/11/22 08:26:48;;;;;;;10.53;9.27;;;;;;;;;;5004674;28;20527;-85
2023/11/22 08:29:16;;;;;;;11.73;9.50;;;;;;;;;;5002103;28;20537;-87
2023/11/22 08:31:42;;;;;;;10.40;9.50;;;;;;;;;;5000578;28;20463;-85
2023/11/22 08:34:11;;;;;;;10.07;9.07;;;;;;;;;;4995199;28;20491;-82
2023/11/22 08:36:38;;;;;;;15.03;13.87;;;;;;;;;;5002749;28;20557;-86
2023/11/22 08:39:05;;;;;;;10.57;9.47;;;;;;;;;;5002267;28;20460;-85
2023/11/22 08:41:34;;;;;;;11.17;9.40;;;;;;;;;;4993892;28;20475;-82
2023/11/22 08:44:00;;;;;;;9.30;8.47;;;;;;;;;;5006686;28;20466;-83
2023/11/22 08:46:27;;;;;;;9.10;8.40;;;;;;;;;;5001579;28;20447;-86
2023/11/22 08:48:53;;;;;;;9.07;8.17;;;;;;;;;;4996300;28;20964;-85
2023/11/22 08:51:20;;;;;;;9.77;8.87;;;;;;;;;;5000176;28;20484;-86
2023/11/22 08:53:46;;;;;;;9.43;8.63;;;;;;;;;;4993921;28;20727;-85
2023/11/22 08:56:12;;;;;;;10.50;8.80;;;;;;;;;;5003355;28;20478;-82
2023/11/22 08:58:40;;;;;;;9.50;8.23;;;;;;;;;;5003457;28;20600;-86
2023/11/22 09:01:07;;;;;;;9.80;8.10;;;;;;;;;;5002382;28;20773;-87
2023/11/22 09:03:34;;;;;;;9.63;8.63;;;;;;;;;;4997148;28;20466;-84
2023/11/22 09:06:02;;;;;;;9.30;8.47;;;;;;;;;;5002227;28;20464;-86
2023/11/22 09:08:29;;;;;;;9.53;8.80;;;;;;;;;;5002578;28;20523;-86
2023/11/22 09:10:56;;;;;;;10.13;9.00;;;;;;;;;;4992918;28;20526;-85
2023/11/22 09:13:22;;;;;;;9.13;8.23;;;;;;;;;;4997152;28;20543;-84
2023/11/22 09:15:50;;;;;;;9.13;8.33;;;;;;;;;;5010604;28;20502;-85
2023/11/22 09:18:17;;;;;;;9.07;8.27;;;;;;;;;;5004430;28;20519;-85
2023/11/22 09:20:44;;;;;;;10.20;8.07;;;;;;;;;;4993725;28;20531;-85
2023/11/22 09:23:11;;;;;;;11.50;8.20;;;;;;;;;;4994064;28;20459;-86
2023/11/22 09:25:38;;;;;;;9.40;8.53;;;;;;;;;;4995577;28;20501;-84
2023/11/22 09:28:07;;;;;;;10.53;9.40;;;;;;;;;;5004196;28;20459;-84
2023/11/22 09:30:35;;;;;;;7.97;7.27;;;;;;;;;;5004704;28;20492;-88
2023/11/22 09:33:03;;;;;;;9.70;8.90;;;;;;;;;;5003887;28;20466;-85
2023/11/22 09:35:31;;;;;;;10.10;9.20;;;;;;;;;;5001087;28;20475;-85
2023/11/22 09:37:57;;;;;;;9.73;9.03;;;;;;;;;;5002348;28;20462;-84
2023/11/22 09:40:24;;;;;;;10.23;8.60;;;;;;;;;;4997322;28;20490;-87
2023/11/22 09:42:55;;;;;;;9.47;8.77;;;;;;;;;;4994299;28;20538;-85
2023/11/22 09:45:22;;;;;;;9.17;8.27;;;;;;;;;;5002745;28;20471;-84
2023/11/22 09:47:49;;;;;;;12.70;9.07;;;;;;;;;;5003858;28;20554;-84
2023/11/22 09:50:20;;;;;;;8.83;8.13;;;;;;;;;;4995852;28;20503;-85
2023/11/22 09:52:49;;;;;;;9.77;8.97;;;;;;;;;;4998091;28;20459;-84
2023/11/22 09:55:17;;;;;;;9.50;8.00;;;;;;;;;;5005665;28;20458;-84
2023/11/22 09:57:44;;;;;;;9.43;8.53;;;;;;;;;;5006118;28;20535;-86
2023/11/22 10:00:13;;;;;;;9.67;8.73;;;;;;;;;;4996996;28;20901;-86
2023/11/22 10:02:40;;;;;;;9.07;8.40;;;;;;;;;;5001439;28;20475;-84
2023/11/22 10:05:08;;;;;;;9.60;8.80;;;;;;;;;;5000065;28;20459;-87
2023/11/22 10:07:37;;;;;;;8.33;7.63;;;;;;;;;;4992625;28;20469;-86
2023/11/22 10:10:06;;;;;;;8.77;7.97;;;;;;;;;;4997942;28;20537;-86
2023/11/22 10:12:36;;;;;;;9.77;8.93;;;;;;;;;;4999125;28;20487;-84
2023/11/22 10:15:12;;;;;;;9.03;8.23;;;;;;;;;;5002166;28;20551;-85
2023/11/22 10:17:38;;;;;;;8.93;8.00;;;;;;;;;;5000803;28;20491;-88
2023/11/22 10:20:10;;;;;;;7.40;6.83;;;;;;;;;;4997413;28;20507;-87
2023/11/22 10:22:45;;;;;;;8.70;8.00;;;;;;;;;;5005280;28;20455;-84
2023/11/22 10:25:12;;;;;;;8.07;7.47;;;;;;;;;;4992114;28;20468;-86
2023/11/22 10:27:39;;;;;;;9.87;8.90;;;;;;;;;;4999218;28;20491;-84
2023/11/22 10:30:06;;;;;;;8.40;7.80;;;;;;;;;;4993775;28;20523;-86
2023/11/22 10:32:33;;;;;;;8.67;7.80;;;;;;;;;;4992426;28;20879;-85
2023/11/22 10:35:00;;;;;;;9.10;8.20;;;;;;;;;;4998589;28;20524;-85
2023/11/22 10:37:26;;;;;;;8.87;8.00;;;;;;;;;;5004333;28;20491;-85
2023/11/22 10:39:55;;;;;;;9.47;8.67;;;;;;;;;;5001949;28;20456;-86
2023/11/22 10:42:22;;;;;;;9.27;8.47;;;;;;;;;;4999053;28;20475;-84
2023/11/22 10:44:49;;;;;;;8.17;7.63;;;;;;;;;;4994638;28;20451;-86
2023/11/22 10:47:17;;;;;;;9.40;8.60;;;;;;;;;;4998728;28;20796;-85
2023/11/22 10:49:43;;;;;;;8.90;8.10;;;;;;;;;;5001721;28;20495;-85
2023/11/22 10:52:11;;;;;;;9.00;8.30;;;;;;;;;;5003489;28;20467;-87
2023/11/22 10:54:40;;;;;;;8.57;7.77;;;;;;;;;;5004214;28;20499;-84
2023/11/22 10:57:08;;;;;;;8.80;8.10;;;;;;;;;;5003642;28;20475;-85
2023/11/22 10:59:36;;;;;;;7.80;7.20;;;;;;;;;;4999952;28;20487;-85
2023/11/22 11:02:03;;;;;;;8.50;7.70;;;;;;;;;;4994690;28;20456;-87
2023/11/22 11:04:35;;;;;;;8.20;7.57;;;;;;;;;;4998419;28;20463;-82
2023/11/22 11:07:02;;;;;;;8.73;8.03;;;;;;;;;;4993911;28;20451;-88
2023/11/22 11:09:32;;;;;;;8.53;7.83;;;;;;;;;;4995359;28;20493;-84
2023/11/22 11:11:59;;;;;;;7.40;6.90;;;;;;;;;;4992464;28;20444;-84
2023/11/22 11:14:27;;;;;;;8.63;7.93;;;;;;;;;;4996011;28;20467;-86
2023/11/22 11:16:54;;;;;;;8.20;7.60;;;;;;;;;;5002283;28;20470;-84
2023/11/22 11:19:22;;;;;;;10.83;8.30;;;;;;;;;;5002391;28;20467;-84
2023/11/22 11:21:49;;;;;;;7.90;7.37;;;;;;;;;;5001716;28;20547;-86
2023/11/22 11:24:15;;;;;;;8.63;7.80;;;;;;;;;;4998431;28;20523;-84
2023/11/22 11:26:47;;;;;;;8.37;7.70;;;;;;;;;;5000244;28;20562;-86
2023/11/22 11:29:29;;;;;;;7.40;6.90;;;;;;;;;;4996540;28;20455;-83
2023/11/22 11:31:57;;;;;;;8.10;7.40;;;;;;;;;;4996406;28;20456;-84
2023/11/22 11:34:24;;;;;;;8.13;7.53;;;;;;;;;;4999595;28;20499;-86
2023/11/22 11:36:53;;;;;;;7.20;6.80;;;;;;;;;;5000184;28;20440;-87
2023/11/22 11:39:26;;;;;;;8.27;7.77;;;;;;;;;;5001514;28;20463;-85
2023/11/22 11:41:53;;;;;;;8.90;8.23;;;;;;;;;;4996974;28;20451;-87
2023/11/22 11:44:19;;;;;;;8.20;7.50;;;;;;;;;;4999405;28;20806;-86
2023/11/22 11:46:46;;;;;;;7.90;7.40;;;;;;;;;;5002157;28;20463;-85
2023/11/22 11:49:14;;;;;;;7.30;6.90;;;;;;;;;;4998711;28;20513;-84
2023/11/22 11:51:42;;;;;;;7.90;7.40;;;;;;;;;;5000018;28;20491;-85
2023/11/22 11:54:09;;;;;;;8.43;7.83;;;;;;;;;;4993597;28;20527;-86
2023/11/22 11:56:35;;;;;;;7.40;6.90;;;;;;;;;;5002925;28;21014;-86
2023/11/22 11:59:03;;;;;;;7.70;7.20;;;;;;;;;;4995842;28;20571;-87
2023/11/22 12:01:32;;;;;;;7.60;7.00;;;;;;;;;;4991855;28;20470;-90
2023/11/22 12:03:58;;;;;;;8.53;7.83;;;;;;;;;;4999090;28;21023;-85
2023/11/22 12:06:26;;;;;;;7.43;7.03;;;;;;;;;;5008810;28;20803;-86
2023/11/22 12:08:52;;;;;;;8.30;7.80;;;;;;;;;;5003156;28;20503;-87
2023/11/22 12:11:19;;;;;;;7.33;6.87;;;;;;;;;;4997605;28;20498;-85
2023/11/22 12:13:49;;;;;;;6.40;5.97;;;;;;;;;;5012638;28;20479;-83
2023/11/22 12:16:16;;;;;;;12.07;11.33;;;;;;;;;;5001057;28;20543;-85
2023/11/22 12:18:43;;;;;;;12.90;12.10;;;;;;;;;;4998931;28;20573;-84
2023/11/22 12:21:12;;;;;;;13.27;12.20;;;;;;;;;;4995976;28;20467;-84
2023/11/22 12:23:40;;;;;;;12.07;11.37;;;;;;;;;;4999469;28;20482;-83
2023/11/22 12:26:11;;;;;;;12.70;11.90;;;;;;;;;;5000259;28;20459;-87
2023/11/22 12:28:37;;;;;;;10.90;10.30;;;;;;;;;;4998765;28;21217;-84
2023/11/22 12:31:07;;;;;;;10.93;10.13;;;;;;;;;;4998770;28;20514;-84
2023/11/22 12:33:35;;;;;;;11.07;10.37;;;;;;;;;;4999194;28;20486;-86
2023/11/22 12:36:01;;;;;;;11.20;10.50;;;;;;;;;;4997083;28;20463;-85
2023/11/22 12:38:29;;;;;;;11.87;11.00;;;;;;;;;;4999990;28;20495;-82
2023/11/22 12:40:58;;;;;;;10.17;9.57;;;;;;;;;;4995932;28;20530;-83
2023/11/22 12:43:26;;;;;;;10.80;10.00;;;;;;;;;;5000290;28;20703;-81
2023/11/22 12:45:59;;;;;;;10.70;10.10;;;;;;;;;;4999747;28;20480;-83
2023/11/22 12:48:27;;;;;;;11.53;10.90;;;;;;;;;;4995596;28;20532;-82
2023/11/22 12:50:54;;;;;;;11.20;10.50;;;;;;;;;;4996306;28;21139;-88
2023/11/22 12:53:22;;;;;;;10.50;9.70;;;;;;;;;;5004487;28;20454;-86
2023/11/22 12:55:49;;;;;;;7.00;6.50;;;;;;;;;;4993381;28;20583;-86
2023/11/22 12:58:17;;;;;;;11.50;10.70;;;;;;;;;;5000507;28;20530;-86
2023/11/22 13:00:45;;;;;;;7.57;6.87;;;;;;;;;;4993912;28;20452;-86
2023/11/22 13:03:11;;;;;;;11.67;10.97;;;;;;;;;;4992348;28;20463;-85
2023/11/22 13:05:38;;;;;;;8.20;7.50;;;;;;;;;;4998974;28;20971;-84
2023/11/22 13:08:04;;;;;;;6.27;5.77;;;;;;;;;;4996119;28;20519;-82
2023/11/22 13:10:31;;;;;;;6.90;6.40;;;;;;;;;;4993026;28;20559;-85
2023/11/22 13:12:58;;;;;;;7.27;6.67;;;;;;;;;;4986889;28;20465;-87
2023/11/22 13:15:26;;;;;;;10.20;9.70;;;;;;;;;;5001066;28;20491;-88
2023/11/22 13:17:55;;;;;;;11.80;11.10;;;;;;;;;;5003054;28;20474;-88
2023/11/22 13:20:22;;;;;;;8.00;6.83;;;;;;;;;;4999980;28;20511;-85
2023/11/22 13:22:49;;;;;;;8.60;7.80;;;;;;;;;;4999160;28;20451;-87
2023/11/22 13:25:17;;;;;;;8.37;7.60;;;;;;;;;;5000771;28;20451;-86
2023/11/22 13:27:43;;;;;;;7.40;6.90;;;;;;;;;;4998405;28;20455;-86
2023/11/22 13:30:10;;;;;;;7.70;7.30;;;;;;;;;;4994501;28;20455;-90
2023/11/22 13:32:41;;;;;;;7.40;6.90;;;;;;;;;;4999325;28;20466;-85
2023/11/22 13:35:14;;;;;;;11.47;10.90;;;;;;;;;;4995645;28;20999;-87
2023/11/22 13:37:42;;;;;;;7.43;6.83;;;;;;;;;;5002119;28;20490;-87
2023/11/22 13:40:12;;;;;;;7.10;6.70;;;;;;;;;;5003831;28;20493;-86
2023/11/22 13:42:38;;;;;;;8.30;7.70;;;;;;;;;;5001927;28;20463;-85
2023/11/22 13:45:05;;;;;;;8.70;8.10;;;;;;;;;;5003153;28;20524;-84
2023/11/22 13:47:33;;;;;;;12.00;11.00;;;;;;;;;;5000407;28;20972;-85
2023/11/22 13:50:01;;;;;;;12.10;11.40;;;;;;;;;;4989715;28;20464;-82
2023/11/22 13:52:28;;;;;;;11.57;10.93;;;;;;;;;;4993030;28;20487;-84
2023/11/22 13:54:56;;;;;;;7.97;7.37;;;;;;;;;;4990154;28;20987;-85
2023/11/22 13:57:23;;;;;;;7.30;6.90;;;;;;;;;;4997031;28;20789;-85
2023/11/22 13:59:50;;;;;;;8.03;7.53;;;;;;;;;;4991677;28;20481;-82
2023/11/22 14:02:17;;;;;;;9.60;9.00;;;;;;;;;;4995736;28;20467;-83
2023/11/22 14:04:43;;;;;;;8.57;7.97;;;;;;;;;;4997864;28;20486;-84
2023/11/22 14:07:11;;;;;;;8.23;7.63;;;;;;;;;;4997150;28;20444;-86
2023/11/22 14:09:38;;;;;;;9.30;8.53;;;;;;;;;;4991349;28;20483;-87
2023/11/22 14:12:04;;;;;;;9.20;8.60;;;;;;;;;;4996253;28;21023;-90
2023/11/22 14:14:31;;;;;;;9.20;8.53;;;;;;;;;;4991354;28;20974;-84
2023/11/22 14:16:57;;;;;;;10.03;9.13;;;;;;;;;;4996919;28;20483;-82
2023/11/22 14:19:24;;;;;;;9.50;8.70;;;;;;;;;;5000990;28;20703;-84
2023/11/22 14:21:50;;;;;;;9.43;8.83;;;;;;;;;;5000737;28;20452;-87
2023/11/22 14:24:18;;;;;;;9.70;8.90;;;;;;;;;;4996782;28;20455;-85
2023/11/22 14:26:48;;;;;;;10.73;10.03;;;;;;;;;;5002339;28;21007;-84
2023/11/22 14:29:16;;;;;;;10.90;10.10;;;;;;;;;;4996545;28;20479;-82
2023/11/22 14:31:42;;;;;;;14.70;13.70;;;;;;;;;;5001033;28;20484;-82
2023/11/22 14:34:12;;;;;;;10.40;9.60;;;;;;;;;;4998850;28;20460;-85
2023/11/22 14:36:38;;;;;;;10.10;9.23;;;;;;;;;;4993812;28;20467;-86
2023/11/22 14:39:07;;;;;;;9.97;8.97;;;;;;;;;;4990795;28;20461;-86